Time;durP1;ratioP1;P1;durP2;ratioP2;P2;SDS_P1;SDS_P2;PMS_P1;PMS_P2;Temp;Humidity;BMP_temperature;BMP_pressure;BME280_temperature;BME280_humidity;BME280_pressure;Samples;Min_cycle;Max_cycle;Signal;HPM_P1;HPM_P2
2023/10/31 00:02:00;;;;;;;;;30.50;28.00;;;;;;;;6278124;22;45263;-71
2023/10/31 00:04:26;;;;;;;;;17.50;14.50;;;;;;;;6277629;22;45294;-71
2023/10/31 00:06:51;;;;;;;;;20.00;17.75;;;;;;;;6278180;22;45192;-71
2023/10/31 00:09:16;;;;;;;;;16.75;13.25;;;;;;;;6277978;22;45311;-71
2023/10/31 00:11:42;;;;;;;;;15.75;12.25;;;;;;;;6278386;22;45231;-71
2023/10/31 00:14:08;;;;;;;;;12.50;10.75;;;;;;;;6277531;22;45388;-72
2023/10/31 00:16:33;;;;;;;;;12.25;10.50;;;;;;;;6249825;22;48098;-71
2023/10/31 00:18:58;;;;;;;;;16.25;15.00;;;;;;;;6277332;22;45168;-71
2023/10/31 00:21:23;;;;;;;;;7.00;7.00;;;;;;;;6278210;22;45154;-71
2023/10/31 00:23:49;;;;;;;;;12.00;10.75;;;;;;;;6277960;22;45534;-71
2023/10/31 00:26:14;;;;;;;;;8.25;6.50;;;;;;;;6278004;22;46244;-71
2023/10/31 00:28:40;;;;;;;;;7.50;6.25;;;;;;;;6278329;22;45197;-72
2023/10/31 00:31:06;;;;;;;;;6.50;5.50;;;;;;;;6278148;22;45224;-71
2023/10/31 00:33:32;;;;;;;;;9.00;8.25;;;;;;;;6278031;22;45257;-71
2023/10/31 00:35:57;;;;;;;;;8.25;5.25;;;;;;;;6279252;22;45224;-71
2023/10/31 00:38:22;;;;;;;;;6.75;4.75;;;;;;;;6278254;22;45193;-71
2023/10/31 00:40:47;;;;;;;;;7.25;5.00;;;;;;;;6278104;22;44626;-71
2023/10/31 00:43:12;;;;;;;;;11.00;6.25;;;;;;;;6249978;22;45260;-71
2023/10/31 00:45:37;;;;;;;;;4.00;4.00;;;;;;;;6278081;22;45437;-71
2023/10/31 00:48:03;;;;;;;;;6.00;6.00;;;;;;;;6277796;22;45328;-71
2023/10/31 00:50:28;;;;;;;;;8.25;6.75;;;;;;;;6277982;22;45297;-71
2023/10/31 00:52:54;;;;;;;;;3.00;3.00;;;;;;;;6276411;22;45529;-71
2023/10/31 00:55:19;;;;;;;;;6.00;4.25;;;;;;;;6277829;22;45232;-71
2023/10/31 00:57:44;;;;;;;;;12.25;7.00;;;;;;;;6277781;22;44630;-71
2023/10/31 01:00:09;;;;;;;;;4.75;4.75;;;;;;;;6250100;22;45365;-71
2023/10/31 01:02:35;;;;;;;;;6.00;4.50;;;;;;;;6276061;22;45569;-71
2023/10/31 01:05:00;;;;;;;;;9.50;8.75;;;;;;;;6277660;22;45422;-71
2023/10/31 01:07:25;;;;;;;;;5.00;4.75;;;;;;;;6277874;22;45169;-71
2023/10/31 01:09:51;;;;;;;;;10.00;7.00;;;;;;;;6276876;22;45153;-71
2023/10/31 01:12:16;;;;;;;;;8.25;8.25;;;;;;;;6278269;22;45231;-71
2023/10/31 01:14:41;;;;;;;;;7.50;7.50;;;;;;;;6276409;22;46955;-71
2023/10/31 01:17:07;;;;;;;;;7.25;6.50;;;;;;;;6280373;22;45308;-71
2023/10/31 01:19:33;;;;;;;;;17.00;14.25;;;;;;;;6278844;22;45228;-71
2023/10/31 01:21:58;;;;;;;;;11.00;9.00;;;;;;;;6277741;22;45443;-71
2023/10/31 01:24:23;;;;;;;;;6.00;3.25;;;;;;;;6276987;22;45323;-71
2023/10/31 01:26:49;;;;;;;;;10.75;10.50;;;;;;;;6278034;22;45154;-71
2023/10/31 01:29:14;;;;;;;;;9.00;9.00;;;;;;;;6277940;22;45232;-71
2023/10/31 01:31:40;;;;;;;;;10.75;8.50;;;;;;;;6277430;22;45177;-71
2023/10/31 01:34:06;;;;;;;;;6.00;5.00;;;;;;;;6276785;22;46163;-71
2023/10/31 01:36:31;;;;;;;;;5.25;4.00;;;;;;;;6278080;22;45264;-71
2023/10/31 01:38:56;;;;;;;;;10.75;10.75;;;;;;;;6277537;22;45010;-70
2023/10/31 01:41:21;;;;;;;;;6.00;6.00;;;;;;;;6248911;22;46978;-71
2023/10/31 01:43:46;;;;;;;;;5.50;4.25;;;;;;;;6276706;22;45232;-71
2023/10/31 01:46:11;;;;;;;;;5.00;3.75;;;;;;;;6277948;22;45268;-72
2023/10/31 01:48:37;;;;;;;;;2.25;2.00;;;;;;;;6277433;22;45283;-71
2023/10/31 01:51:04;;;;;;;;;2.25;2.00;;;;;;;;6277999;22;45283;-71
2023/10/31 01:53:30;;;;;;;;;1.25;1.25;;;;;;;;6249045;22;47719;-71
2023/10/31 01:55:56;;;;;;;;;2.75;1.50;;;;;;;;6277869;22;45262;-71
2023/10/31 01:58:25;;;;;;;;;3.00;3.00;;;;;;;;6278542;22;45232;-71
2023/10/31 02:00:50;;;;;;;;;3.00;3.00;;;;;;;;6278915;22;45150;-73
2023/10/31 02:03:16;;;;;;;;;4.00;2.00;;;;;;;;6276903;22;45439;-73
2023/10/31 02:05:41;;;;;;;;;1.00;0.25;;;;;;;;6277763;22;45146;-72
2023/10/31 02:08:08;;;;;;;;;2.00;1.75;;;;;;;;6277764;22;45193;-71
2023/10/31 02:10:33;;;;;;;;;4.00;1.00;;;;;;;;6249176;22;45268;-72
2023/10/31 02:12:58;;;;;;;;;1.00;1.00;;;;;;;;6276772;22;46499;-72
2023/10/31 02:15:23;;;;;;;;;2.00;1.00;;;;;;;;6277490;22;45282;-72
2023/10/31 02:17:48;;;;;;;;;3.00;1.50;;;;;;;;6249535;22;45249;-71
2023/10/31 02:20:14;;;;;;;;;1.00;1.00;;;;;;;;6277610;22;45191;-73
2023/10/31 02:22:39;;;;;;;;;2.50;2.00;;;;;;;;6277416;22;45288;-71
2023/10/31 02:25:15;;;;;;;;;1.50;1.50;;;;;;;;6277463;22;45240;-71
2023/10/31 02:27:40;;;;;;;;;2.50;2.50;;;;;;;;6277580;22;45438;-71
2023/10/31 02:30:06;;;;;;;;;3.00;1.00;;;;;;;;6277346;22;45272;-72
2023/10/31 02:32:31;;;;;;;;;3.00;2.25;;;;;;;;6276862;22;45267;-71
2023/10/31 02:34:56;;;;;;;;;2.75;2.75;;;;;;;;6276978;22;44650;-72
2023/10/31 02:37:21;;;;;;;;;4.00;3.00;;;;;;;;6277955;22;45351;-71
2023/10/31 02:39:47;;;;;;;;;4.00;4.00;;;;;;;;6279250;22;45347;-71
2023/10/31 02:42:12;;;;;;;;;6.00;4.50;;;;;;;;6278533;22;45247;-72
2023/10/31 02:44:37;;;;;;;;;5.00;3.50;;;;;;;;6277291;22;45212;-72
2023/10/31 02:47:02;;;;;;;;;9.25;5.00;;;;;;;;6277447;22;45105;-72
2023/10/31 02:49:27;;;;;;;;;6.00;4.00;;;;;;;;6275017;22;44823;-71
2023/10/31 02:51:53;;;;;;;;;4.00;4.00;;;;;;;;6277299;22;45982;-71
2023/10/31 02:54:18;;;;;;;;;5.25;4.00;;;;;;;;6278174;22;45146;-72
2023/10/31 02:56:43;;;;;;;;;7.00;6.00;;;;;;;;6278874;22;44586;-72
2023/10/31 02:59:08;;;;;;;;;7.50;4.75;;;;;;;;6277844;22;45201;-72
2023/10/31 03:01:35;;;;;;;;;6.75;4.00;;;;;;;;6277392;22;45460;-72
2023/10/31 03:04:00;;;;;;;;;6.50;4.00;;;;;;;;6278060;22;45181;-71
2023/10/31 03:06:25;;;;;;;;;6.75;5.25;;;;;;;;6250011;22;45222;-72
2023/10/31 03:08:50;;;;;;;;;5.50;4.00;;;;;;;;6278369;22;45507;-72
2023/10/31 03:11:23;;;;;;;;;7.50;5.75;;;;;;;;6278280;22;45295;-72
2023/10/31 03:13:48;;;;;;;;;4.00;4.00;;;;;;;;6278450;22;45182;-72
2023/10/31 03:16:14;;;;;;;;;7.00;4.50;;;;;;;;6278820;22;45145;-72
2023/10/31 03:18:39;;;;;;;;;7.00;4.75;;;;;;;;6278256;22;45361;-72
2023/10/31 03:21:04;;;;;;;;;3.75;3.00;;;;;;;;6279812;22;46437;-72
2023/10/31 03:23:29;;;;;;;;;5.25;4.00;;;;;;;;6279581;22;45144;-72
2023/10/31 03:25:55;;;;;;;;;5.25;5.00;;;;;;;;6278441;22;45071;-71
2023/10/31 03:28:22;;;;;;;;;7.00;4.50;;;;;;;;6278244;22;45602;-70
2023/10/31 03:30:48;;;;;;;;;5.00;3.50;;;;;;;;6278378;22;45320;-71
2023/10/31 03:33:14;;;;;;;;;6.25;4.75;;;;;;;;6277699;22;45536;-71
2023/10/31 03:35:39;;;;;;;;;2.00;2.00;;;;;;;;6278660;22;45378;-71
2023/10/31 03:38:04;;;;;;;;;5.75;5.00;;;;;;;;6278093;22;45363;-71
2023/10/31 03:40:29;;;;;;;;;3.75;3.75;;;;;;;;6277887;22;45525;-71
2023/10/31 03:42:54;;;;;;;;;5.25;4.25;;;;;;;;6278101;22;45287;-71
2023/10/31 03:45:19;;;;;;;;;6.00;5.50;;;;;;;;6278109;22;45221;-71
2023/10/31 03:47:45;;;;;;;;;3.75;3.75;;;;;;;;6278104;22;45563;-72
2023/10/31 03:50:10;;;;;;;;;5.00;5.00;;;;;;;;6278080;22;46137;-72
2023/10/31 03:52:35;;;;;;;;;5.25;5.25;;;;;;;;6278094;22;45214;-71
2023/10/31 03:55:00;;;;;;;;;9.00;5.75;;;;;;;;6278856;22;45231;-71
2023/10/31 03:57:25;;;;;;;;;6.00;6.00;;;;;;;;6277273;22;45486;-71
2023/10/31 03:59:51;;;;;;;;;6.00;4.25;;;;;;;;6278826;22;46061;-72
2023/10/31 04:02:16;;;;;;;;;5.50;4.00;;;;;;;;6279426;22;45264;-72
2023/10/31 04:04:41;;;;;;;;;4.00;4.00;;;;;;;;6278957;22;45251;-71
2023/10/31 04:07:06;;;;;;;;;7.50;4.25;;;;;;;;6250707;22;46097;-72
2023/10/31 04:09:32;;;;;;;;;4.00;2.00;;;;;;;;6278039;22;45605;-72
2023/10/31 04:11:57;;;;;;;;;5.25;5.25;;;;;;;;6250033;22;45202;-72
2023/10/31 04:14:22;;;;;;;;;4.50;3.00;;;;;;;;6276952;22;45292;-71
2023/10/31 04:16:47;;;;;;;;;5.25;5.00;;;;;;;;6278361;22;45146;-72
2023/10/31 04:19:15;;;;;;;;;2.75;2.75;;;;;;;;6249128;22;46667;-72
2023/10/31 04:21:41;;;;;;;;;5.25;3.50;;;;;;;;6278276;22;45118;-72
2023/10/31 04:24:06;;;;;;;;;6.00;3.00;;;;;;;;6249921;22;45253;-72
2023/10/31 04:26:31;;;;;;;;;4.75;3.50;;;;;;;;6278247;22;45063;-72
2023/10/31 04:28:56;;;;;;;;;4.75;3.75;;;;;;;;6278006;22;45215;-72
2023/10/31 04:31:22;;;;;;;;;5.00;5.00;;;;;;;;6278118;22;45144;-72
2023/10/31 04:33:47;;;;;;;;;4.25;3.00;;;;;;;;6277291;22;45445;-72
2023/10/31 04:36:12;;;;;;;;;3.00;3.00;;;;;;;;6278418;22;45327;-71
2023/10/31 04:38:38;;;;;;;;;4.50;3.50;;;;;;;;6278384;22;45693;-72
2023/10/31 04:41:03;;;;;;;;;5.00;2.00;;;;;;;;6278512;22;45319;-72
2023/10/31 04:43:28;;;;;;;;;4.50;4.00;;;;;;;;6280047;22;45210;-72
2023/10/31 04:45:53;;;;;;;;;4.67;4.00;;;;;;;;6280475;22;45647;-72
2023/10/31 04:48:19;;;;;;;;;3.00;3.00;;;;;;;;6277416;22;45373;-72
2023/10/31 04:50:44;;;;;;;;;2.67;2.67;;;;;;;;6278204;22;45213;-71
2023/10/31 04:53:09;;;;;;;;;5.25;5.00;;;;;;;;6277848;22;45247;-71
2023/10/31 04:55:34;;;;;;;;;3.00;3.00;;;;;;;;6278061;22;45493;-71
2023/10/31 04:57:59;;;;;;;;;9.25;5.75;;;;;;;;6277617;22;45364;-72
2023/10/31 05:00:24;;;;;;;;;4.00;4.00;;;;;;;;6278142;22;45282;-71
2023/10/31 05:02:50;;;;;;;;;5.00;3.00;;;;;;;;6249197;22;45252;-71
2023/10/31 05:05:15;;;;;;;;;5.00;4.25;;;;;;;;6250430;22;45802;-72
2023/10/31 05:07:40;;;;;;;;;5.33;3.00;;;;;;;;6277491;22;46048;-71
2023/10/31 05:10:06;;;;;;;;;4.75;4.00;;;;;;;;6276885;22;45178;-71
2023/10/31 05:12:31;;;;;;;;;3.50;3.25;;;;;;;;6277309;22;45284;-71
2023/10/31 05:14:56;;;;;;;;;7.00;6.50;;;;;;;;6277825;22;45501;-71
2023/10/31 05:17:21;;;;;;;;;6.67;4.67;;;;;;;;6276957;22;45103;-71
2023/10/31 05:19:46;;;;;;;;;4.00;4.00;;;;;;;;6278583;22;45236;-71
2023/10/31 05:22:12;;;;;;;;;7.25;5.25;;;;;;;;6278899;22;45350;-71
2023/10/31 05:24:37;;;;;;;;;5.67;3.67;;;;;;;;6279533;22;45427;-71
2023/10/31 05:27:03;;;;;;;;;7.25;4.75;;;;;;;;6279995;22;45230;-71
2023/10/31 05:29:30;;;;;;;;;4.00;3.00;;;;;;;;6277728;22;45225;-71
2023/10/31 05:31:55;;;;;;;;;4.00;4.00;;;;;;;;6277627;22;45198;-71
2023/10/31 05:34:20;;;;;;;;;5.00;5.00;;;;;;;;6276902;22;45410;-71
2023/10/31 05:36:45;;;;;;;;;5.67;5.33;;;;;;;;6278029;22;45498;-71
2023/10/31 05:39:10;;;;;;;;;7.67;5.00;;;;;;;;6277191;22;45166;-71
2023/10/31 05:41:36;;;;;;;;;6.00;4.00;;;;;;;;6277816;22;45282;-71
2023/10/31 05:44:01;;;;;;;;;8.67;4.67;;;;;;;;6277485;22;45140;-71
2023/10/31 05:46:26;;;;;;;;;3.67;3.00;;;;;;;;6277487;22;45141;-71
2023/10/31 05:48:52;;;;;;;;;6.00;6.00;;;;;;;;6277392;22;45224;-71
2023/10/31 05:51:18;;;;;;;;;8.33;5.00;;;;;;;;6248720;22;44622;-71
2023/10/31 05:53:44;;;;;;;;;6.33;5.33;;;;;;;;6277449;22;45295;-71
2023/10/31 05:56:10;;;;;;;;;6.50;4.00;;;;;;;;6277835;22;45419;-71
2023/10/31 05:58:39;;;;;;;;;5.67;5.33;;;;;;;;6277128;22;45286;-72
2023/10/31 06:01:04;;;;;;;;;8.00;5.75;;;;;;;;6278682;22;45092;-71
2023/10/31 06:03:30;;;;;;;;;6.00;5.00;;;;;;;;6277958;22;45203;-72
2023/10/31 06:05:55;;;;;;;;;6.00;6.00;;;;;;;;6279697;22;45162;-72
2023/10/31 06:08:20;;;;;;;;;5.00;5.00;;;;;;;;6279424;22;45201;-71
2023/10/31 06:10:45;;;;;;;;;5.00;4.00;;;;;;;;6277997;22;44658;-72
2023/10/31 06:13:11;;;;;;;;;4.33;4.33;;;;;;;;6277038;22;45451;-72
2023/10/31 06:15:36;;;;;;;;;5.00;5.00;;;;;;;;6277279;22;45135;-72
2023/10/31 06:18:01;;;;;;;;;7.33;5.67;;;;;;;;6275941;22;45350;-72
2023/10/31 06:20:26;;;;;;;;;5.33;4.67;;;;;;;;6277659;22;45126;-72
2023/10/31 06:22:51;;;;;;;;;5.00;5.00;;;;;;;;6277029;22;45410;-72
2023/10/31 06:25:16;;;;;;;;;5.33;4.67;;;;;;;;6277780;22;45209;-72
2023/10/31 06:27:42;;;;;;;;;6.50;4.50;;;;;;;;6277910;22;45235;-74
2023/10/31 06:30:07;;;;;;;;;6.67;4.67;;;;;;;;6279038;22;45192;-72
2023/10/31 06:32:32;;;;;;;;;4.33;3.00;;;;;;;;6278039;22;45251;-73
2023/10/31 06:34:58;;;;;;;;;6.75;4.00;;;;;;;;6245107;22;46743;-74
2023/10/31 06:37:23;;;;;;;;;11.67;6.33;;;;;;;;6248237;22;45365;-73
2023/10/31 06:39:48;;;;;;;;;7.50;6.00;;;;;;;;6247850;22;45215;-73
2023/10/31 06:42:13;;;;;;;;;4.00;4.00;;;;;;;;6249705;22;45223;-72
2023/10/31 06:44:38;;;;;;;;;11.00;8.25;;;;;;;;6251306;22;44845;-72
2023/10/31 06:47:04;;;;;;;;;6.67;5.00;;;;;;;;6250820;22;45322;-72
2023/10/31 06:49:29;;;;;;;;;6.67;5.00;;;;;;;;6250020;22;45238;-71
2023/10/31 06:51:54;;;;;;;;;5.33;4.00;;;;;;;;6249193;22;45176;-71
2023/10/31 06:54:19;;;;;;;;;8.00;5.00;;;;;;;;6247300;22;46365;-72
2023/10/31 06:56:44;;;;;;;;;5.00;3.33;;;;;;;;6247055;22;45229;-72
2023/10/31 06:59:10;;;;;;;;;6.33;4.67;;;;;;;;6247362;22;45309;-74
2023/10/31 07:01:35;;;;;;;;;6.33;5.00;;;;;;;;6247521;22;45211;-73
2023/10/31 07:04:00;;;;;;;;;7.00;6.00;;;;;;;;6247146;22;45201;-73
2023/10/31 07:06:25;;;;;;;;;7.00;4.00;;;;;;;;6247792;22;45420;-73
2023/10/31 07:08:50;;;;;;;;;4.00;2.67;;;;;;;;6247498;22;45239;-74
2023/10/31 07:11:16;;;;;;;;;4.00;4.00;;;;;;;;6245189;22;46897;-74
2023/10/31 07:13:41;;;;;;;;;4.67;4.33;;;;;;;;6247064;22;45295;-74
2023/10/31 07:16:06;;;;;;;;;5.00;4.00;;;;;;;;6247640;22;45250;-74
2023/10/31 07:18:31;;;;;;;;;5.33;4.67;;;;;;;;6246554;22;45217;-72
2023/10/31 07:20:57;;;;;;;;;7.33;5.33;;;;;;;;6248470;22;45258;-72
2023/10/31 07:23:22;;;;;;;;;3.00;3.00;;;;;;;;6246510;22;45208;-72
2023/10/31 07:25:48;;;;;;;;;7.67;3.33;;;;;;;;6250085;22;45232;-71
2023/10/31 07:28:13;;;;;;;;;6.67;3.33;;;;;;;;6249832;22;45104;-72
2023/10/31 07:30:38;;;;;;;;;3.00;3.00;;;;;;;;6250781;22;45102;-72
2023/10/31 07:33:03;;;;;;;;;4.00;3.00;;;;;;;;6259540;22;46375;-71
2023/10/31 07:35:28;;;;;;;;;5.33;3.67;;;;;;;;6308873;22;45232;-72
2023/10/31 07:37:54;;;;;;;;;4.33;4.33;;;;;;;;6309264;22;45229;-72
2023/10/31 07:40:19;;;;;;;;;5.67;4.67;;;;;;;;6308900;22;45355;-71
2023/10/31 07:42:44;;;;;;;;;5.00;2.33;;;;;;;;6277226;22;47410;-71
2023/10/31 07:45:10;;;;;;;;;2.00;2.00;;;;;;;;6301809;22;45384;-72
2023/10/31 07:47:35;;;;;;;;;5.00;3.67;;;;;;;;6279022;22;45280;-72
2023/10/31 07:50:00;;;;;;;;;4.00;3.33;;;;;;;;6307981;22;45551;-72
2023/10/31 07:52:26;;;;;;;;;4.33;3.00;;;;;;;;6308013;22;45355;-72
2023/10/31 07:54:52;;;;;;;;;3.67;3.00;;;;;;;;6279010;22;45244;-71
2023/10/31 07:57:17;;;;;;;;;2.00;2.00;;;;;;;;6307453;22;45275;-71
2023/10/31 07:59:42;;;;;;;;;4.67;3.00;;;;;;;;6308032;22;45388;-71
2023/10/31 08:02:07;;;;;;;;;2.00;2.00;;;;;;;;6305208;22;46159;-71
2023/10/31 08:04:32;;;;;;;;;5.67;3.00;;;;;;;;6306179;22;45343;-71
2023/10/31 08:06:58;;;;;;;;;3.00;1.67;;;;;;;;6307117;22;45460;-70
2023/10/31 08:09:23;;;;;;;;;2.33;2.33;;;;;;;;6307233;22;45211;-71
2023/10/31 08:11:48;;;;;;;;;4.33;1.00;;;;;;;;6308104;22;45386;-71
2023/10/31 08:14:15;;;;;;;;;2.00;2.00;;;;;;;;6307717;22;45307;-70
2023/10/31 08:16:40;;;;;;;;;2.33;2.00;;;;;;;;6307954;22;45366;-71
2023/10/31 08:19:05;;;;;;;;;2.00;2.00;;;;;;;;6307376;22;45863;-71
2023/10/31 08:21:34;;;;;;;;;4.67;4.00;;;;;;;;6308350;22;45312;-71
2023/10/31 08:24:00;;;;;;;;;2.00;2.00;;;;;;;;6306822;22;45246;-70
2023/10/31 08:26:25;;;;;;;;;1.00;1.00;;;;;;;;6308068;22;45161;-71
2023/10/31 08:28:51;;;;;;;;;3.67;3.33;;;;;;;;6306920;22;45356;-71
2023/10/31 08:31:16;;;;;;;;;2.00;2.00;;;;;;;;6306765;22;45297;-71
2023/10/31 08:33:41;;;;;;;;;3.00;2.00;;;;;;;;6306768;22;45364;-71
2023/10/31 08:36:07;;;;;;;;;1.00;1.00;;;;;;;;6308159;22;45220;-70
2023/10/31 08:38:32;;;;;;;;;3.00;3.00;;;;;;;;6306918;22;45349;-71
2023/10/31 08:40:58;;;;;;;;;3.00;2.00;;;;;;;;6280655;22;47604;-71
2023/10/31 08:43:23;;;;;;;;;2.00;2.00;;;;;;;;6308813;22;45271;-71
2023/10/31 08:45:48;;;;;;;;;2.67;2.00;;;;;;;;6309413;22;45299;-71
2023/10/31 08:48:15;;;;;;;;;3.00;3.00;;;;;;;;6308475;22;45306;-71
2023/10/31 08:50:40;;;;;;;;;2.33;2.33;;;;;;;;6308347;22;45339;-71
2023/10/31 08:53:06;;;;;;;;;2.00;2.00;;;;;;;;6311338;22;45322;-71
2023/10/31 08:55:31;;;;;;;;;4.67;3.00;;;;;;;;6312387;22;45264;-72
2023/10/31 08:57:56;;;;;;;;;4.00;3.00;;;;;;;;6307683;22;45318;-71
2023/10/31 09:00:22;;;;;;;;;2.00;2.00;;;;;;;;6307291;22;44968;-69
2023/10/31 09:02:47;;;;;;;;;1.67;1.67;;;;;;;;6306355;22;45326;-70
2023/10/31 09:05:13;;;;;;;;;4.00;3.00;;;;;;;;6279513;22;45306;-70
2023/10/31 09:07:38;;;;;;;;;2.67;2.67;;;;;;;;6307018;22;45290;-71
2023/10/31 09:10:05;;;;;;;;;6.00;3.25;;;;;;;;6307933;22;45191;-71
2023/10/31 09:12:30;;;;;;;;;3.00;3.00;;;;;;;;6306541;22;45200;-70
2023/10/31 09:14:55;;;;;;;;;5.00;2.33;;;;;;;;6308606;22;45207;-70
2023/10/31 09:17:20;;;;;;;;;3.00;3.00;;;;;;;;6308907;22;45429;-71
2023/10/31 09:19:45;;;;;;;;;3.67;2.67;;;;;;;;6307718;22;46651;-70
2023/10/31 09:22:20;;;;;;;;;3.33;3.33;;;;;;;;5072396;28;45393;-71
2023/10/31 09:24:45;;;;;;;;;2.00;2.00;;;;;;;;5054552;28;45316;-70
2023/10/31 09:27:10;;;;;;;;;3.00;2.00;;;;;;;;5070469;28;45343;-70
2023/10/31 09:29:35;;;;;;;;;4.00;4.00;;;;;;;;5057189;28;45389;-70
2023/10/31 09:32:01;;;;;;;;;4.33;2.67;;;;;;;;5070427;28;46194;-71
2023/10/31 09:34:26;;;;;;;;;6.00;3.00;;;;;;;;5060416;28;45170;-70
2023/10/31 09:36:51;;;;;;;;;2.00;1.00;;;;;;;;5071913;28;45393;-70
2023/10/31 09:39:16;;;;;;;;;5.67;2.33;;;;;;;;5057385;27;45600;-70
2023/10/31 09:41:41;;;;;;;;;2.00;2.00;;;;;;;;5060605;28;45354;-70
2023/10/31 09:44:07;;;;;;;;;1.00;1.00;;;;;;;;5055980;28;45447;-70
2023/10/31 09:46:33;;;;;;;;;2.33;2.33;;;;;;;;5061919;28;46224;-70
2023/10/31 09:48:59;;;;;;;;;3.67;2.33;;;;;;;;5058924;27;45799;-70
2023/10/31 09:51:24;;;;;;;;;4.00;2.00;;;;;;;;5062583;28;46232;-70
2023/10/31 09:53:50;;;;;;;;;2.00;2.00;;;;;;;;5055958;28;45321;-70
2023/10/31 09:56:17;;;;;;;;;4.00;3.00;;;;;;;;5064112;28;45287;-70
2023/10/31 09:58:42;;;;;;;;;1.67;1.67;;;;;;;;5054406;28;45390;-70
2023/10/31 10:01:07;;;;;;;;;3.00;1.33;;;;;;;;5065069;28;45476;-70
2023/10/31 10:03:33;;;;;;;;;3.33;2.00;;;;;;;;5060888;28;44853;-70
2023/10/31 10:05:58;;;;;;;;;1.00;1.00;;;;;;;;5059572;28;45532;-70
2023/10/31 10:08:23;;;;;;;;;1.00;1.00;;;;;;;;5061214;28;45296;-70
2023/10/31 10:10:49;;;;;;;;;3.00;2.00;;;;;;;;5059551;28;45343;-70
2023/10/31 10:13:17;;;;;;;;;1.33;0.00;;;;;;;;5059793;27;45364;-70
2023/10/31 10:15:49;;;;;;;;;2.67;1.33;;;;;;;;5063362;28;45174;-70
2023/10/31 10:18:31;;;;;;;;;3.00;1.33;;;;;;;;5059004;28;45476;-70
2023/10/31 10:20:56;;;;;;;;;1.00;1.00;;;;;;;;5070876;27;45408;-71
2023/10/31 10:23:21;;;;;;;;;1.00;1.00;;;;;;;;5075848;27;45398;-70
2023/10/31 10:25:48;;;;;;;;;2.00;2.00;;;;;;;;5062746;27;45419;-70
2023/10/31 10:28:14;;;;;;;;;2.00;2.00;;;;;;;;5076628;27;45429;-69
2023/10/31 10:30:39;;;;;;;;;3.00;1.00;;;;;;;;5067843;27;47600;-70
2023/10/31 10:33:05;;;;;;;;;1.00;1.00;;;;;;;;5066911;27;45470;-70
2023/10/31 10:35:30;;;;;;;;;1.00;1.00;;;;;;;;5058534;28;45566;-70
2023/10/31 10:37:56;;;;;;;;;1.67;1.67;;;;;;;;5069779;28;45596;-70
2023/10/31 10:40:21;;;;;;;;;1.00;1.00;;;;;;;;5055178;28;46050;-70
2023/10/31 10:42:47;;;;;;;;;3.00;2.00;;;;;;;;5070520;28;45232;-70
2023/10/31 10:45:13;;;;;;;;;0.67;0.00;;;;;;;;5058129;28;45230;-69
2023/10/31 10:47:39;;;;;;;;;0.33;0.33;;;;;;;;5053228;28;46212;-69
2023/10/31 10:50:05;;;;;;;;;2.00;2.00;;;;;;;;5059279;28;45155;-69
2023/10/31 10:52:36;;;;;;;;;1.00;1.00;;;;;;;;5070315;28;45224;-69
2023/10/31 10:55:01;;;;;;;;;1.67;1.33;;;;;;;;5059307;28;45424;-70
2023/10/31 10:57:26;;;;;;;;;3.00;3.00;;;;;;;;5071125;28;45169;-69
2023/10/31 10:59:56;;;;;;;;;1.67;1.67;;;;;;;;5046302;28;47221;-69
2023/10/31 11:02:21;;;;;;;;;1.00;1.00;;;;;;;;5073443;28;45378;-70
2023/10/31 11:04:47;;;;;;;;;1.00;1.00;;;;;;;;5047858;28;45289;-70
2023/10/31 11:07:13;;;;;;;;;2.00;2.00;;;;;;;;5071667;28;45439;-70
2023/10/31 11:09:39;;;;;;;;;1.00;1.00;;;;;;;;5062547;28;45865;-70
2023/10/31 11:12:04;;;;;;;;;1.33;1.00;;;;;;;;5071354;28;45436;-70
2023/10/31 11:14:33;;;;;;;;;2.00;2.00;;;;;;;;5066553;28;45486;-70
2023/10/31 11:17:03;;;;;;;;;1.67;1.67;;;;;;;;5069696;28;45438;-70
2023/10/31 11:19:29;;;;;;;;;3.00;2.00;;;;;;;;5059070;28;47010;-70
2023/10/31 11:21:55;;;;;;;;;1.00;1.00;;;;;;;;5070989;28;45434;-70
2023/10/31 11:24:20;;;;;;;;;2.00;2.00;;;;;;;;5062058;28;45330;-69
2023/10/31 11:26:52;;;;;;;;;1.67;0.67;;;;;;;;5073489;28;45352;-70
2023/10/31 11:29:18;;;;;;;;;1.00;1.00;;;;;;;;5065715;28;47240;-70
2023/10/31 11:31:43;;;;;;;;;2.33;1.00;;;;;;;;5074529;28;45376;-70
2023/10/31 11:34:08;;;;;;;;;2.33;1.67;;;;;;;;5068167;28;45387;-70
2023/10/31 11:36:35;;;;;;;;;1.00;1.00;;;;;;;;5073894;28;45280;-70
2023/10/31 11:39:14;;;;;;;;;4.00;1.00;;;;;;;;5061237;28;45325;-70
2023/10/31 11:41:39;;;;;;;;;1.00;1.00;;;;;;;;5031686;28;45347;-69
2023/10/31 11:44:04;;;;;;;;;2.00;2.00;;;;;;;;5054714;28;45385;-70
2023/10/31 11:46:30;;;;;;;;;6.00;4.00;;;;;;;;5066553;28;45438;-70
2023/10/31 11:48:55;;;;;;;;;1.00;1.00;;;;;;;;5060767;28;45138;-70
2023/10/31 11:51:21;;;;;;;;;2.67;2.00;;;;;;;;5067480;28;45243;-69
2023/10/31 11:53:47;;;;;;;;;2.33;2.00;;;;;;;;5059959;28;45325;-69
2023/10/31 11:56:13;;;;;;;;;2.00;2.00;;;;;;;;5068959;28;45355;-69
2023/10/31 11:58:38;;;;;;;;;2.00;2.00;;;;;;;;5046955;28;45989;-69
2023/10/31 12:01:04;;;;;;;;;3.00;2.00;;;;;;;;5068935;28;45525;-70
2023/10/31 12:03:37;;;;;;;;;2.00;2.00;;;;;;;;5042926;28;45452;-68
2023/10/31 12:06:03;;;;;;;;;4.00;3.00;;;;;;;;5071314;28;45374;-71
2023/10/31 12:08:30;;;;;;;;;2.00;2.00;;;;;;;;5062997;28;45441;-70
2023/10/31 12:11:09;;;;;;;;;5.67;2.00;;;;;;;;5073309;28;45399;-70
2023/10/31 12:13:36;;;;;;;;;4.00;4.00;;;;;;;;5063304;28;45256;-70
2023/10/31 12:16:01;;;;;;;;;5.00;1.33;;;;;;;;5077029;28;45329;-71
2023/10/31 12:18:27;;;;;;;;;4.33;4.00;;;;;;;;5064964;28;45430;-70
2023/10/31 12:20:52;;;;;;;;;1.67;1.67;;;;;;;;5062435;28;45430;-70
2023/10/31 12:23:18;;;;;;;;;3.00;1.67;;;;;;;;5059745;28;45455;-71
2023/10/31 12:25:47;;;;;;;;;3.00;3.00;;;;;;;;5061061;28;45443;-70
2023/10/31 12:28:16;;;;;;;;;1.33;1.00;;;;;;;;5057650;28;46245;-70
2023/10/31 12:30:46;;;;;;;;;8.33;7.33;;;;;;;;5061420;28;45430;-70
2023/10/31 12:33:11;;;;;;;;;2.67;2.33;;;;;;;;5050709;28;45315;-70
2023/10/31 12:35:36;;;;;;;;;0.00;0.00;;;;;;;;5034141;28;46017;-71
2023/10/31 12:38:02;;;;;;;;;3.67;0.67;;;;;;;;5063607;28;46861;-71
2023/10/31 12:40:27;;;;;;;;;1.00;1.00;;;;;;;;5067917;28;45326;-71
2023/10/31 12:42:52;;;;;;;;;0.67;0.67;;;;;;;;5067938;28;45504;-71
2023/10/31 12:45:18;;;;;;;;;0.67;0.67;;;;;;;;5067245;28;45596;-71
2023/10/31 12:47:43;;;;;;;;;1.00;1.00;;;;;;;;5072129;28;45275;-70
2023/10/31 12:50:18;;;;;;;;;0.67;0.67;;;;;;;;5061363;28;45194;-71
2023/10/31 12:52:47;;;;;;;;;4.33;0.67;;;;;;;;5072654;28;45428;-70
2023/10/31 12:55:15;;;;;;;;;1.00;1.00;;;;;;;;5063632;28;45569;-70
2023/10/31 12:57:40;;;;;;;;;0.33;0.33;;;;;;;;5062126;28;45478;-70
2023/10/31 13:00:10;;;;;;;;;2.00;1.00;;;;;;;;5065144;28;45467;-69
2023/10/31 13:02:35;;;;;;;;;3.67;0.67;;;;;;;;5062199;28;45331;-68
2023/10/31 13:05:09;;;;;;;;;0.00;0.00;;;;;;;;5036004;28;45942;-69
2023/10/31 13:07:35;;;;;;;;;2.33;2.33;;;;;;;;5040236;28;47483;-68
2023/10/31 13:10:00;;;;;;;;;25.67;24.33;;;;;;;;5057097;28;45232;-69
2023/10/31 13:12:27;;;;;;;;;1.33;0.33;;;;;;;;5060112;28;45280;-69
2023/10/31 13:14:53;;;;;;;;;3.00;2.33;;;;;;;;5058794;28;45546;-68
2023/10/31 13:17:19;;;;;;;;;3.67;2.67;;;;;;;;5059539;28;45380;-70
2023/10/31 13:19:44;;;;;;;;;2.33;1.00;;;;;;;;5066259;28;45550;-70
2023/10/31 13:22:09;;;;;;;;;2.00;1.00;;;;;;;;5070334;28;45417;-70
2023/10/31 13:24:35;;;;;;;;;1.33;0.67;;;;;;;;5057029;28;45292;-69
2023/10/31 13:27:02;;;;;;;;;3.67;1.67;;;;;;;;5064447;28;45460;-70
2023/10/31 13:29:27;;;;;;;;;1.00;0.33;;;;;;;;5059770;28;45443;-70
2023/10/31 13:31:53;;;;;;;;;1.67;1.67;;;;;;;;5059001;28;45208;-69
2023/10/31 13:34:18;;;;;;;;;3.00;1.67;;;;;;;;5054036;28;45550;-70
2023/10/31 13:36:44;;;;;;;;;0.67;0.67;;;;;;;;5067470;28;46372;-70
2023/10/31 13:39:09;;;;;;;;;3.33;2.33;;;;;;;;5055664;28;45361;-70
2023/10/31 13:41:34;;;;;;;;;1.00;1.00;;;;;;;;5048679;28;45466;-69
2023/10/31 13:43:59;;;;;;;;;2.67;1.67;;;;;;;;5052945;28;45553;-70
2023/10/31 13:46:24;;;;;;;;;3.33;1.00;;;;;;;;5058842;28;45285;-70
2023/10/31 13:48:50;;;;;;;;;2.00;2.00;;;;;;;;5053769;28;45348;-69
2023/10/31 13:51:15;;;;;;;;;2.00;1.00;;;;;;;;5060556;28;45236;-70
2023/10/31 13:53:40;;;;;;;;;2.33;1.67;;;;;;;;5052113;28;45549;-70
2023/10/31 13:56:06;;;;;;;;;2.00;1.00;;;;;;;;5056948;28;45225;-69
2023/10/31 13:58:31;;;;;;;;;3.33;1.33;;;;;;;;5053504;28;45451;-69
2023/10/31 14:00:56;;;;;;;;;2.00;1.00;;;;;;;;5049627;28;45811;-70
2023/10/31 14:03:22;;;;;;;;;1.67;0.67;;;;;;;;5063402;28;45597;-70
2023/10/31 14:05:47;;;;;;;;;4.67;1.00;;;;;;;;5069649;28;46047;-70
2023/10/31 14:08:12;;;;;;;;;1.67;0.67;;;;;;;;5068681;28;45402;-70
2023/10/31 14:10:38;;;;;;;;;3.00;2.00;;;;;;;;5063240;28;45347;-70
2023/10/31 14:13:03;;;;;;;;;2.33;2.33;;;;;;;;5072712;28;45409;-70
2023/10/31 14:15:28;;;;;;;;;3.00;2.00;;;;;;;;5061901;28;46114;-70
2023/10/31 14:17:53;;;;;;;;;2.00;2.00;;;;;;;;5041398;28;45288;-70
2023/10/31 14:20:19;;;;;;;;;3.67;0.67;;;;;;;;5040721;28;45287;-70
2023/10/31 14:22:50;;;;;;;;;1.00;1.00;;;;;;;;5040197;28;45493;-70
2023/10/31 14:25:15;;;;;;;;;3.00;2.00;;;;;;;;5035898;28;45316;-70
2023/10/31 14:27:42;;;;;;;;;4.67;1.67;;;;;;;;5041546;28;45145;-71
2023/10/31 14:30:09;;;;;;;;;2.33;2.00;;;;;;;;5035195;28;45434;-70
2023/10/31 14:32:34;;;;;;;;;4.00;1.50;;;;;;;;5041149;28;45367;-70